sensor_id;sensor_type;location;lat;lon;timestamp;pressure;altitude;pressure_sealevel;temperature
15453;BMP280;7827;53.594;9.938;2022-12-18T00:00:28;147572.56;;;-2.91
15453;BMP280;7827;53.594;9.938;2022-12-18T00:02:58;147558.91;;;-2.96
15453;BMP280;7827;53.594;9.938;2022-12-18T00:05:26;147552.75;;;-2.98
15453;BMP280;7827;53.594;9.938;2022-12-18T00:07:55;147544.06;;;-3.02
15453;BMP280;7827;53.594;9.938;2022-12-18T00:10:23;147527.97;;;-3.08
15453;BMP280;7827;53.594;9.938;2022-12-18T00:12:51;147525.47;;;-3.09
15453;BMP280;7827;53.594;9.938;2022-12-18T00:15:20;147523.03;;;-3.10
15453;BMP280;7827;53.594;9.938;2022-12-18T00:17:48;147505.66;;;-3.17
15453;BMP280;7827;53.594;9.938;2022-12-18T00:20:18;147506.91;;;-3.17
15453;BMP280;7827;53.594;9.938;2022-12-18T00:22:52;147547.75;;;-3.00
15453;BMP280;7827;53.594;9.938;2022-12-18T00:25:21;147565.13;;;-2.93
15453;BMP280;7827;53.594;9.938;2022-12-18T00:27:49;147565.13;;;-2.93
15453;BMP280;7827;53.594;9.938;2022-12-18T00:30:19;147555.19;;;-2.97
15453;BMP280;7827;53.594;9.938;2022-12-18T00:32:47;147561.41;;;-2.95
15453;BMP280;7827;53.594;9.938;2022-12-18T00:35:15;147560.19;;;-2.95
15453;BMP280;7827;53.594;9.938;2022-12-18T00:37:47;147560.19;;;-2.95
15453;BMP280;7827;53.594;9.938;2022-12-18T00:40:15;147547.75;;;-3.00
15453;BMP280;7827;53.594;9.938;2022-12-18T00:42:43;147549.03;;;-3.00
15453;BMP280;7827;53.594;9.938;2022-12-18T00:45:23;147555.19;;;-2.97
15453;BMP280;7827;53.594;9.938;2022-12-18T00:47:52;147558.91;;;-2.96
15453;BMP280;7827;53.594;9.938;2022-12-18T00:50:22;147557.69;;;-2.96
15453;BMP280;7827;53.594;9.938;2022-12-18T00:52:52;147562.63;;;-2.94
15453;BMP280;7827;53.594;9.938;2022-12-18T00:55:20;147556.47;;;-2.97
15453;BMP280;7827;53.594;9.938;2022-12-18T00:57:50;147544.06;;;-3.02
15453;BMP280;7827;53.594;9.938;2022-12-18T01:00:19;147546.53;;;-3.01
15453;BMP280;7827;53.594;9.938;2022-12-18T01:02:47;147537.88;;;-3.04
15453;BMP280;7827;53.594;9.938;2022-12-18T01:05:16;147527.97;;;-3.08
15453;BMP280;7827;53.594;9.938;2022-12-18T01:07:44;147516.81;;;-3.13
15453;BMP280;7827;53.594;9.938;2022-12-18T01:10:14;147510.59;;;-3.15
15453;BMP280;7827;53.594;9.938;2022-12-18T01:12:42;147513.09;;;-3.14
15453;BMP280;7827;53.594;9.938;2022-12-18T01:15:14;147499.47;;;-3.20
15453;BMP280;7827;53.594;9.938;2022-12-18T01:17:43;147506.91;;;-3.17
15453;BMP280;7827;53.594;9.938;2022-12-18T01:20:12;147501.94;;;-3.19
15453;BMP280;7827;53.594;9.938;2022-12-18T01:22:41;147495.75;;;-3.21
15453;BMP280;7827;53.594;9.938;2022-12-18T01:25:09;147508.16;;;-3.16
15453;BMP280;7827;53.594;9.938;2022-12-18T01:27:39;147503.19;;;-3.18
15453;BMP280;7827;53.594;9.938;2022-12-18T01:30:08;147495.75;;;-3.21
15453;BMP280;7827;53.594;9.938;2022-12-18T01:32:37;147492.03;;;-3.23
15453;BMP280;7827;53.594;9.938;2022-12-18T01:35:07;147488.31;;;-3.24
15453;BMP280;7827;53.594;9.938;2022-12-18T01:37:35;147490.81;;;-3.23
15453;BMP280;7827;53.594;9.938;2022-12-18T01:40:05;147494.53;;;-3.22
15453;BMP280;7827;53.594;9.938;2022-12-18T01:42:33;147493.31;;;-3.22
15453;BMP280;7827;53.594;9.938;2022-12-18T01:45:24;147483.38;;;-3.26
15453;BMP280;7827;53.594;9.938;2022-12-18T01:47:55;147478.38;;;-3.28
15453;BMP280;7827;53.594;9.938;2022-12-18T01:50:31;147467.25;;;-3.33
15453;BMP280;7827;53.594;9.938;2022-12-18T01:53:06;147470.97;;;-3.31
15453;BMP280;7827;53.594;9.938;2022-12-18T01:55:40;147482.09;;;-3.27
15453;BMP280;7827;53.594;9.938;2022-12-18T01:58:09;147473.44;;;-3.30
15453;BMP280;7827;53.594;9.938;2022-12-18T02:00:39;147482.09;;;-3.27
15453;BMP280;7827;53.594;9.938;2022-12-18T02:03:08;147475.94;;;-3.29
15453;BMP280;7827;53.594;9.938;2022-12-18T02:05:46;147466.03;;;-3.33
15453;BMP280;7827;53.594;9.938;2022-12-18T02:08:22;147458.59;;;-3.36
15453;BMP280;7827;53.594;9.938;2022-12-18T02:11:02;147453.66;;;-3.38
15453;BMP280;7827;53.594;9.938;2022-12-18T02:13:43;147436.31;;;-3.45
15453;BMP280;7827;53.594;9.938;2022-12-18T02:16:24;147431.38;;;-3.47
15453;BMP280;7827;53.594;9.938;2022-12-18T02:18:58;147426.38;;;-3.49
15453;BMP280;7827;53.594;9.938;2022-12-18T02:21:36;147432.59;;;-3.46
15453;BMP280;7827;53.594;9.938;2022-12-18T02:24:28;147431.38;;;-3.47
15453;BMP280;7827;53.594;9.938;2022-12-18T02:27:04;147433.81;;;-3.46
15453;BMP280;7827;53.594;9.938;2022-12-18T02:29:39;147423.94;;;-3.50
15453;BMP280;7827;53.594;9.938;2022-12-18T02:32:14;147415.25;;;-3.53
15453;BMP280;7827;53.594;9.938;2022-12-18T02:34:46;147416.50;;;-3.53
15453;BMP280;7827;53.594;9.938;2022-12-18T02:37:19;147409.09;;;-3.56
15453;BMP280;7827;53.594;9.938;2022-12-18T02:39:53;147411.53;;;-3.55
15453;BMP280;7827;53.594;9.938;2022-12-18T02:42:24;147426.38;;;-3.49
15453;BMP280;7827;53.594;9.938;2022-12-18T02:44:54;147411.53;;;-3.55
15453;BMP280;7827;53.594;9.938;2022-12-18T02:47:30;147410.31;;;-3.55
15453;BMP280;7827;53.594;9.938;2022-12-18T02:50:07;147407.81;;;-3.56
15453;BMP280;7827;53.594;9.938;2022-12-18T02:52:45;147402.88;;;-3.58
15453;BMP280;7827;53.594;9.938;2022-12-18T02:55:32;147401.66;;;-3.59
15453;BMP280;7827;53.594;9.938;2022-12-18T02:58:17;147415.25;;;-3.53
15453;BMP280;7827;53.594;9.938;2022-12-18T03:00:58;147418.94;;;-3.52
15453;BMP280;7827;53.594;9.938;2022-12-18T03:03:35;147418.94;;;-3.52
15453;BMP280;7827;53.594;9.938;2022-12-18T03:06:12;147416.50;;;-3.53
15453;BMP280;7827;53.594;9.938;2022-12-18T03:08:48;147399.16;;;-3.60
15453;BMP280;7827;53.594;9.938;2022-12-18T03:11:18;147380.59;;;-3.67
15453;BMP280;7827;53.594;9.938;2022-12-18T03:14:11;147357.03;;;-3.77
15453;BMP280;7827;53.594;9.938;2022-12-18T03:16:42;147348.41;;;-3.80
15453;BMP280;7827;53.594;9.938;2022-12-18T03:19:16;147354.59;;;-3.78
15453;BMP280;7827;53.594;9.938;2022-12-18T03:21:53;147359.53;;;-3.76
15453;BMP280;7827;53.594;9.938;2022-12-18T03:24:28;147369.44;;;-3.72
15453;BMP280;7827;53.594;9.938;2022-12-18T03:27:02;147352.09;;;-3.79
15453;BMP280;7827;53.594;9.938;2022-12-18T03:29:38;147373.16;;;-3.70
15453;BMP280;7827;53.594;9.938;2022-12-18T03:32:14;147369.44;;;-3.72
15453;BMP280;7827;53.594;9.938;2022-12-18T03:34:46;147370.69;;;-3.71
15453;BMP280;7827;53.594;9.938;2022-12-18T03:37:19;147370.69;;;-3.71
15453;BMP280;7827;53.594;9.938;2022-12-18T03:39:48;147379.31;;;-3.68
15453;BMP280;7827;53.594;9.938;2022-12-18T03:42:26;147373.16;;;-3.70
15453;BMP280;7827;53.594;9.938;2022-12-18T03:45:13;147364.47;;;-3.74
15453;BMP280;7827;53.594;9.938;2022-12-18T03:47:58;147364.47;;;-3.74
15453;BMP280;7827;53.594;9.938;2022-12-18T03:50:41;147357.03;;;-3.77
15453;BMP280;7827;53.594;9.938;2022-12-18T03:53:28;147352.09;;;-3.79
15453;BMP280;7827;53.594;9.938;2022-12-18T03:56:03;147357.03;;;-3.77
15453;BMP280;7827;53.594;9.938;2022-12-18T03:58:40;147354.59;;;-3.78
15453;BMP280;7827;53.594;9.938;2022-12-18T04:01:28;147354.59;;;-3.78
15453;BMP280;7827;53.594;9.938;2022-12-18T04:04:01;147354.59;;;-3.78
15453;BMP280;7827;53.594;9.938;2022-12-18T04:06:34;147354.59;;;-3.78
15453;BMP280;7827;53.594;9.938;2022-12-18T04:09:04;147324.88;;;-3.89
15453;BMP280;7827;53.594;9.938;2022-12-18T04:11:37;147336.03;;;-3.85
15453;BMP280;7827;53.594;9.938;2022-12-18T04:14:06;147344.69;;;-3.82
15453;BMP280;7827;53.594;9.938;2022-12-18T04:16:39;147329.81;;;-3.88
15453;BMP280;7827;53.594;9.938;2022-12-18T04:19:11;147326.13;;;-3.89
15453;BMP280;7827;53.594;9.938;2022-12-18T04:21:42;147318.69;;;-3.92
15453;BMP280;7827;53.594;9.938;2022-12-18T04:24:11;147314.97;;;-3.93
15453;BMP280;7827;53.594;9.938;2022-12-18T04:26:47;147302.56;;;-3.98
15453;BMP280;7827;53.594;9.938;2022-12-18T04:29:18;147308.78;;;-3.96
15453;BMP280;7827;53.594;9.938;2022-12-18T04:31:48;147312.47;;;-3.94
15453;BMP280;7827;53.594;9.938;2022-12-18T04:34:16;147300.13;;;-3.99
15453;BMP280;7827;53.594;9.938;2022-12-18T04:36:49;147277.84;;;-4.08
15453;BMP280;7827;53.594;9.938;2022-12-18T04:39:18;147265.44;;;-4.13
15453;BMP280;7827;53.594;9.938;2022-12-18T04:41:48;147260.50;;;-4.15
15453;BMP280;7827;53.594;9.938;2022-12-18T04:44:17;147253.09;;;-4.18
15453;BMP280;7827;53.594;9.938;2022-12-18T04:46:45;147261.72;;;-4.15
15453;BMP280;7827;53.594;9.938;2022-12-18T04:49:15;147256.78;;;-4.17
15453;BMP280;7827;53.594;9.938;2022-12-18T04:51:43;147265.44;;;-4.13
15453;BMP280;7827;53.594;9.938;2022-12-18T04:54:11;147258.00;;;-4.16
15453;BMP280;7827;53.594;9.938;2022-12-18T04:56:39;147259.28;;;-4.16
15453;BMP280;7827;53.594;9.938;2022-12-18T04:59:08;147253.09;;;-4.18
15453;BMP280;7827;53.594;9.938;2022-12-18T05:01:36;147240.72;;;-4.23
15453;BMP280;7827;53.594;9.938;2022-12-18T05:04:04;147237.00;;;-4.25
15453;BMP280;7827;53.594;9.938;2022-12-18T05:06:34;147227.09;;;-4.29
15453;BMP280;7827;53.594;9.938;2022-12-18T05:09:03;147223.38;;;-4.30
15453;BMP280;7827;53.594;9.938;2022-12-18T05:11:32;147223.38;;;-4.30
15453;BMP280;7827;53.594;9.938;2022-12-18T05:14:00;147230.81;;;-4.27
15453;BMP280;7827;53.594;9.938;2022-12-18T05:16:28;147232.03;;;-4.27
15453;BMP280;7827;53.594;9.938;2022-12-18T05:18:56;147223.38;;;-4.30
15453;BMP280;7827;53.594;9.938;2022-12-18T05:21:24;147222.16;;;-4.31
15453;BMP280;7827;53.594;9.938;2022-12-18T05:23:54;147208.53;;;-4.36
15453;BMP280;7827;53.594;9.938;2022-12-18T05:26:22;147207.28;;;-4.37
15453;BMP280;7827;53.594;9.938;2022-12-18T05:28:50;147210.97;;;-4.35
15453;BMP280;7827;53.594;9.938;2022-12-18T05:31:19;147218.44;;;-4.32
15453;BMP280;7827;53.594;9.938;2022-12-18T05:33:47;147223.38;;;-4.30
15453;BMP280;7827;53.594;9.938;2022-12-18T05:36:15;147223.38;;;-4.30
15453;BMP280;7827;53.594;9.938;2022-12-18T05:38:44;147228.31;;;-4.28
15453;BMP280;7827;53.594;9.938;2022-12-18T05:41:13;147240.72;;;-4.23
15453;BMP280;7827;53.594;9.938;2022-12-18T05:43:42;147240.72;;;-4.23
15453;BMP280;7827;53.594;9.938;2022-12-18T05:48:59;147220.91;;;-4.31
15453;BMP280;7827;53.594;9.938;2022-12-18T05:51:28;147206.06;;;-4.37
15453;BMP280;7827;53.594;9.938;2022-12-18T05:53:56;147196.13;;;-4.41
15453;BMP280;7827;53.594;9.938;2022-12-18T05:56:25;147180.06;;;-4.47
15453;BMP280;7827;53.594;9.938;2022-12-18T05:58:54;147177.56;;;-4.48
15453;BMP280;7827;53.594;9.938;2022-12-18T06:01:25;147181.28;;;-4.47
15453;BMP280;7827;53.594;9.938;2022-12-18T06:03:54;147182.56;;;-4.46
15453;BMP280;7827;53.594;9.938;2022-12-18T06:06:25;147180.06;;;-4.47
15453;BMP280;7827;53.594;9.938;2022-12-18T06:08:55;147177.56;;;-4.48
15453;BMP280;7827;53.594;9.938;2022-12-18T06:11:26;147171.44;;;-4.51
15453;BMP280;7827;53.594;9.938;2022-12-18T06:13:56;147166.44;;;-4.53
15453;BMP280;7827;53.594;9.938;2022-12-18T06:16:27;147164.00;;;-4.54
15453;BMP280;7827;53.594;9.938;2022-12-18T06:18:57;147171.44;;;-4.51
15453;BMP280;7827;53.594;9.938;2022-12-18T06:21:26;147168.94;;;-4.52
15453;BMP280;7827;53.594;9.938;2022-12-18T06:23:55;147149.16;;;-4.60
15453;BMP280;7827;53.594;9.938;2022-12-18T06:26:25;147149.16;;;-4.60
15453;BMP280;7827;53.594;9.938;2022-12-18T06:28:55;147159.03;;;-4.56
15453;BMP280;7827;53.594;9.938;2022-12-18T06:31:25;147149.16;;;-4.60
15453;BMP280;7827;53.594;9.938;2022-12-18T06:33:53;147146.66;;;-4.61
15453;BMP280;7827;53.594;9.938;2022-12-18T06:36:22;147141.75;;;-4.63
15453;BMP280;7827;53.594;9.938;2022-12-18T06:38:50;147144.19;;;-4.62
15453;BMP280;7827;53.594;9.938;2022-12-18T06:41:20;147145.44;;;-4.61
15453;BMP280;7827;53.594;9.938;2022-12-18T06:43:50;147150.38;;;-4.59
15453;BMP280;7827;53.594;9.938;2022-12-18T06:46:27;147151.59;;;-4.59
15453;BMP280;7827;53.594;9.938;2022-12-18T06:48:55;147156.59;;;-4.57
15453;BMP280;7827;53.594;9.938;2022-12-18T06:51:24;147156.59;;;-4.57
15453;BMP280;7827;53.594;9.938;2022-12-18T06:53:52;147149.16;;;-4.60
15453;BMP280;7827;53.594;9.938;2022-12-18T06:56:21;147147.88;;;-4.60
15453;BMP280;7827;53.594;9.938;2022-12-18T06:58:51;147160.28;;;-4.55
15453;BMP280;7827;53.594;9.938;2022-12-18T07:01:19;147168.94;;;-4.52
15453;BMP280;7827;53.594;9.938;2022-12-18T07:03:52;147168.94;;;-4.52
15453;BMP280;7827;53.594;9.938;2022-12-18T07:06:24;147164.00;;;-4.54
15453;BMP280;7827;53.594;9.938;2022-12-18T07:08:54;147165.22;;;-4.53
15453;BMP280;7827;53.594;9.938;2022-12-18T07:11:23;147173.88;;;-4.50
15453;BMP280;7827;53.594;9.938;2022-12-18T07:13:53;147196.13;;;-4.41
15453;BMP280;7827;53.594;9.938;2022-12-18T07:16:22;147208.53;;;-4.36
15453;BMP280;7827;53.594;9.938;2022-12-18T07:18:52;147230.81;;;-4.27
15453;BMP280;7827;53.594;9.938;2022-12-18T07:21:23;147240.72;;;-4.23
15453;BMP280;7827;53.594;9.938;2022-12-18T07:23:52;147251.84;;;-4.19
15453;BMP280;7827;53.594;9.938;2022-12-18T07:26:22;147261.72;;;-4.15
15453;BMP280;7827;53.594;9.938;2022-12-18T07:28:56;147249.38;;;-4.20
15453;BMP280;7827;53.594;9.938;2022-12-18T07:31:26;147239.44;;;-4.24
15453;BMP280;7827;53.594;9.938;2022-12-18T07:33:55;147254.31;;;-4.18
15453;BMP280;7827;53.594;9.938;2022-12-18T07:36:24;147259.28;;;-4.16
15453;BMP280;7827;53.594;9.938;2022-12-18T07:38:52;147263.00;;;-4.14
15453;BMP280;7827;53.594;9.938;2022-12-18T07:41:20;147253.09;;;-4.18
15453;BMP280;7827;53.594;9.938;2022-12-18T07:43:49;147237.00;;;-4.25
15453;BMP280;7827;53.594;9.938;2022-12-18T07:46:21;147220.91;;;-4.31
15453;BMP280;7827;53.594;9.938;2022-12-18T07:48:49;147206.06;;;-4.37
15453;BMP280;7827;53.594;9.938;2022-12-18T07:51:18;147194.91;;;-4.41
15453;BMP280;7827;53.594;9.938;2022-12-18T07:53:47;147197.41;;;-4.40
15453;BMP280;7827;53.594;9.938;2022-12-18T07:56:19;147193.69;;;-4.42
15453;BMP280;7827;53.594;9.938;2022-12-18T07:58:55;147181.28;;;-4.47
15453;BMP280;7827;53.594;9.938;2022-12-18T08:01:25;147192.44;;;-4.42
15453;BMP280;7827;53.594;9.938;2022-12-18T08:03:54;147191.19;;;-4.43
15453;BMP280;7827;53.594;9.938;2022-12-18T08:06:23;147201.13;;;-4.39
15453;BMP280;7827;53.594;9.938;2022-12-18T08:08:52;147214.75;;;-4.34
15453;BMP280;7827;53.594;9.938;2022-12-18T08:11:22;147241.94;;;-4.23
15453;BMP280;7827;53.594;9.938;2022-12-18T08:13:51;147249.38;;;-4.20
15453;BMP280;7827;53.594;9.938;2022-12-18T08:16:20;147255.56;;;-4.17
15453;BMP280;7827;53.594;9.938;2022-12-18T08:18:52;147272.88;;;-4.10
15453;BMP280;7827;53.594;9.938;2022-12-18T08:21:23;147302.56;;;-3.98
15453;BMP280;7827;53.594;9.938;2022-12-18T08:23:54;147316.19;;;-3.93
15453;BMP280;7827;53.594;9.938;2022-12-18T08:26:25;147302.56;;;-3.98
15453;BMP280;7827;53.594;9.938;2022-12-18T08:28:55;147328.59;;;-3.88
15453;BMP280;7827;53.594;9.938;2022-12-18T08:31:26;147334.75;;;-3.86
15453;BMP280;7827;53.594;9.938;2022-12-18T08:33:57;147334.75;;;-3.86
15453;BMP280;7827;53.594;9.938;2022-12-18T08:36:25;147340.97;;;-3.83
15453;BMP280;7827;53.594;9.938;2022-12-18T08:38:54;147347.16;;;-3.81
15453;BMP280;7827;53.594;9.938;2022-12-18T08:41:23;147363.25;;;-3.74
15453;BMP280;7827;53.594;9.938;2022-12-18T08:43:51;147366.97;;;-3.73
15453;BMP280;7827;53.594;9.938;2022-12-18T08:46:40;147394.22;;;-3.62
15453;BMP280;7827;53.594;9.938;2022-12-18T08:49:11;147399.16;;;-3.60
15453;BMP280;7827;53.594;9.938;2022-12-18T08:51:40;147420.22;;;-3.51
15453;BMP280;7827;53.594;9.938;2022-12-18T08:54:12;147444.97;;;-3.41
15453;BMP280;7827;53.594;9.938;2022-12-18T08:56:40;147448.69;;;-3.40
15453;BMP280;7827;53.594;9.938;2022-12-18T08:59:09;147466.03;;;-3.33
15453;BMP280;7827;53.594;9.938;2022-12-18T09:01:46;147474.69;;;-3.30
15453;BMP280;7827;53.594;9.938;2022-12-18T09:04:16;147462.31;;;-3.35
15453;BMP280;7827;53.594;9.938;2022-12-18T09:06:44;147468.53;;;-3.32
15453;BMP280;7827;53.594;9.938;2022-12-18T09:09:13;147480.88;;;-3.27
15453;BMP280;7827;53.594;9.938;2022-12-18T09:11:41;147493.31;;;-3.22
15453;BMP280;7827;53.594;9.938;2022-12-18T09:14:10;147485.88;;;-3.25
15453;BMP280;7827;53.594;9.938;2022-12-18T09:16:38;147501.94;;;-3.19
15453;BMP280;7827;53.594;9.938;2022-12-18T09:19:07;147526.75;;;-3.09
15453;BMP280;7827;53.594;9.938;2022-12-18T09:21:36;147540.34;;;-3.03
15453;BMP280;7827;53.594;9.938;2022-12-18T09:24:13;147557.69;;;-2.96
15453;BMP280;7827;53.594;9.938;2022-12-18T09:26:41;147575.06;;;-2.90
15453;BMP280;7827;53.594;9.938;2022-12-18T09:29:13;147587.41;;;-2.85
15453;BMP280;7827;53.594;9.938;2022-12-18T09:31:45;147602.28;;;-2.79
15453;BMP280;7827;53.594;9.938;2022-12-18T09:34:13;147728.75;;;-2.28
15453;BMP280;7827;53.594;9.938;2022-12-18T09:36:43;147819.22;;;-1.92
15453;BMP280;7827;53.594;9.938;2022-12-18T09:39:14;147878.78;;;-1.68
15453;BMP280;7827;53.594;9.938;2022-12-18T09:41:47;147979.25;;;-1.28
15453;BMP280;7827;53.594;9.938;2022-12-18T09:44:27;147922.16;;;-1.51
15453;BMP280;7827;53.594;9.938;2022-12-18T09:47:10;147841.53;;;-1.83
15453;BMP280;7827;53.594;9.938;2022-12-18T09:49:45;147805.63;;;-1.97
15453;BMP280;7827;53.594;9.938;2022-12-18T09:52:21;147768.41;;;-2.12
15453;BMP280;7827;53.594;9.938;2022-12-18T09:54:57;147731.19;;;-2.27
15453;BMP280;7827;53.594;9.938;2022-12-18T09:57:31;147702.72;;;-2.39
15453;BMP280;7827;53.594;9.938;2022-12-18T10:00:08;147690.28;;;-2.43
15453;BMP280;7827;53.594;9.938;2022-12-18T10:02:41;147702.72;;;-2.39
15453;BMP280;7827;53.594;9.938;2022-12-18T10:05:12;147723.75;;;-2.30
15453;BMP280;7827;53.594;9.938;2022-12-18T10:07:54;147736.16;;;-2.25
15453;BMP280;7827;53.594;9.938;2022-12-18T10:10:38;147729.97;;;-2.28
15453;BMP280;7827;53.594;9.938;2022-12-18T10:13:20;147726.25;;;-2.29
15453;BMP280;7827;53.594;9.938;2022-12-18T10:16:03;147703.94;;;-2.38
15453;BMP280;7827;53.594;9.938;2022-12-18T10:19:09;147700.22;;;-2.40
15453;BMP280;7827;53.594;9.938;2022-12-18T10:21:51;147705.16;;;-2.38
15453;BMP280;7827;53.594;9.938;2022-12-18T10:24:35;147734.91;;;-2.26
15453;BMP280;7827;53.594;9.938;2022-12-18T10:27:14;147748.56;;;-2.20
15453;BMP280;7827;53.594;9.938;2022-12-18T10:29:44;147764.69;;;-2.14
15453;BMP280;7827;53.594;9.938;2022-12-18T10:32:16;147770.88;;;-2.11
15453;BMP280;7827;53.594;9.938;2022-12-18T10:34:46;147753.50;;;-2.18
15453;BMP280;7827;53.594;9.938;2022-12-18T10:37:18;147763.44;;;-2.14
15453;BMP280;7827;53.594;9.938;2022-12-18T10:40:12;147785.75;;;-2.05
15453;BMP280;7827;53.594;9.938;2022-12-18T10:43:05;147796.91;;;-2.01
15453;BMP280;7827;53.594;9.938;2022-12-18T10:45:34;147800.63;;;-1.99
15453;BMP280;7827;53.594;9.938;2022-12-18T10:48:04;147798.19;;;-2.00
15453;BMP280;7827;53.594;9.938;2022-12-18T10:50:35;147820.50;;;-1.92
15453;BMP280;7827;53.594;9.938;2022-12-18T10:53:27;147822.94;;;-1.91
15453;BMP280;7827;53.594;9.938;2022-12-18T10:55:58;147842.81;;;-1.83
15453;BMP280;7827;53.594;9.938;2022-12-18T10:58:31;147860.19;;;-1.76
15453;BMP280;7827;53.594;9.938;2022-12-18T11:01:18;147877.50;;;-1.69
15453;BMP280;7827;53.594;9.938;2022-12-18T11:04:00;147880.00;;;-1.68
15453;BMP280;7827;53.594;9.938;2022-12-18T11:06:29;147907.28;;;-1.57
15453;BMP280;7827;53.594;9.938;2022-12-18T11:09:00;147907.28;;;-1.57
15453;BMP280;7827;53.594;9.938;2022-12-18T11:11:40;147914.72;;;-1.54
15453;BMP280;7827;53.594;9.938;2022-12-18T11:14:18;147916.00;;;-1.53
15453;BMP280;7827;53.594;9.938;2022-12-18T11:16:51;147923.44;;;-1.50
15453;BMP280;7827;53.594;9.938;2022-12-18T11:19:41;147923.44;;;-1.50
15453;BMP280;7827;53.594;9.938;2022-12-18T11:22:21;147929.59;;;-1.48
15453;BMP280;7827;53.594;9.938;2022-12-18T11:24:56;147932.09;;;-1.47
15453;BMP280;7827;53.594;9.938;2022-12-18T11:27:52;147919.72;;;-1.52
15453;BMP280;7827;53.594;9.938;2022-12-18T11:30:25;147914.72;;;-1.54
15453;BMP280;7827;53.594;9.938;2022-12-18T11:32:59;147924.66;;;-1.50
15453;BMP280;7827;53.594;9.938;2022-12-18T11:35:44;147912.25;;;-1.55
15453;BMP280;7827;53.594;9.938;2022-12-18T11:38:22;147892.41;;;-1.63
15453;BMP280;7827;53.594;9.938;2022-12-18T11:40:59;147873.78;;;-1.70
15453;BMP280;7827;53.594;9.938;2022-12-18T11:43:37;147882.50;;;-1.67
15453;BMP280;7827;53.594;9.938;2022-12-18T11:46:13;147918.44;;;-1.52
15453;BMP280;7827;53.594;9.938;2022-12-18T11:48:52;147934.59;;;-1.46
15453;BMP280;7827;53.594;9.938;2022-12-18T11:51:28;147960.63;;;-1.36
15453;BMP280;7827;53.594;9.938;2022-12-18T11:54:00;147970.59;;;-1.32
15453;BMP280;7827;53.594;9.938;2022-12-18T11:56:35;147969.31;;;-1.32
15453;BMP280;7827;53.594;9.938;2022-12-18T11:59:16;147968.09;;;-1.33
15453;BMP280;7827;53.594;9.938;2022-12-18T12:01:55;147979.25;;;-1.28
15453;BMP280;7827;53.594;9.938;2022-12-18T12:05:11;147976.75;;;-1.29
15453;BMP280;7827;53.594;9.938;2022-12-18T12:07:52;147973.03;;;-1.31
15453;BMP280;7827;53.594;9.938;2022-12-18T12:10:40;147986.69;;;-1.25
15453;BMP280;7827;53.594;9.938;2022-12-18T12:13:25;147974.31;;;-1.30
15453;BMP280;7827;53.594;9.938;2022-12-18T12:16:13;147991.66;;;-1.23
15453;BMP280;7827;53.594;9.938;2022-12-18T12:19:06;148001.56;;;-1.19
15453;BMP280;7827;53.594;9.938;2022-12-18T12:21:42;147991.66;;;-1.23
15453;BMP280;7827;53.594;9.938;2022-12-18T12:24:31;147978.03;;;-1.29
15453;BMP280;7827;53.594;9.938;2022-12-18T12:27:16;147974.31;;;-1.30
15453;BMP280;7827;53.594;9.938;2022-12-18T12:30:03;147970.59;;;-1.32
15453;BMP280;7827;53.594;9.938;2022-12-18T12:32:51;147979.25;;;-1.28
15453;BMP280;7827;53.594;9.938;2022-12-18T12:35:42;147965.59;;;-1.34
15453;BMP280;7827;53.594;9.938;2022-12-18T12:38:15;147966.88;;;-1.33
15453;BMP280;7827;53.594;9.938;2022-12-18T12:40:49;147974.31;;;-1.30
15453;BMP280;7827;53.594;9.938;2022-12-18T12:43:37;147979.25;;;-1.28
15453;BMP280;7827;53.594;9.938;2022-12-18T12:46:16;147974.31;;;-1.30
15453;BMP280;7827;53.594;9.938;2022-12-18T12:48:50;148002.81;;;-1.19
15453;BMP280;7827;53.594;9.938;2022-12-18T12:51:24;148027.63;;;-1.09
15453;BMP280;7827;53.594;9.938;2022-12-18T12:53:57;148033.84;;;-1.06
15453;BMP280;7827;53.594;9.938;2022-12-18T12:56:36;148030.13;;;-1.08
15453;BMP280;7827;53.594;9.938;2022-12-18T12:59:13;148041.31;;;-1.03
15453;BMP280;7827;53.594;9.938;2022-12-18T13:01:53;148023.91;;;-1.10
15453;BMP280;7827;53.594;9.938;2022-12-18T13:04:36;148036.34;;;-1.05
15453;BMP280;7827;53.594;9.938;2022-12-18T13:07:14;148028.91;;;-1.08
15453;BMP280;7827;53.594;9.938;2022-12-18T13:12:59;148009.03;;;-1.16
15453;BMP280;7827;53.594;9.938;2022-12-18T13:15:37;148023.91;;;-1.10
15453;BMP280;7827;53.594;9.938;2022-12-18T13:18:19;148028.91;;;-1.08
15453;BMP280;7827;53.594;9.938;2022-12-18T13:21:03;148041.31;;;-1.03
15453;BMP280;7827;53.594;9.938;2022-12-18T13:23:38;148028.91;;;-1.08
15453;BMP280;7827;53.594;9.938;2022-12-18T13:26:30;148021.41;;;-1.11
15453;BMP280;7827;53.594;9.938;2022-12-18T13:29:00;148004.09;;;-1.18
15453;BMP280;7827;53.594;9.938;2022-12-18T13:32:20;147989.19;;;-1.24
15453;BMP280;7827;53.594;9.938;2022-12-18T13:35:38;147960.63;;;-1.36
15453;BMP280;7827;53.594;9.938;2022-12-18T13:38:22;147944.53;;;-1.42
15453;BMP280;7827;53.594;9.938;2022-12-18T13:40:57;147925.88;;;-1.49
15453;BMP280;7827;53.594;9.938;2022-12-18T13:43:42;147914.72;;;-1.54
15453;BMP280;7827;53.594;9.938;2022-12-18T13:46:25;147912.25;;;-1.55
15453;BMP280;7827;53.594;9.938;2022-12-18T13:49:00;147899.84;;;-1.60
15453;BMP280;7827;53.594;9.938;2022-12-18T13:51:33;147889.94;;;-1.64
15453;BMP280;7827;53.594;9.938;2022-12-18T13:54:19;147867.63;;;-1.73
15453;BMP280;7827;53.594;9.938;2022-12-18T13:56:49;147862.63;;;-1.75
15453;BMP280;7827;53.594;9.938;2022-12-18T13:59:22;147856.47;;;-1.77
15453;BMP280;7827;53.594;9.938;2022-12-18T14:01:55;147845.25;;;-1.82
15453;BMP280;7827;53.594;9.938;2022-12-18T14:04:28;147844.03;;;-1.82
15453;BMP280;7827;53.594;9.938;2022-12-18T14:07:03;147827.94;;;-1.89
15453;BMP280;7827;53.594;9.938;2022-12-18T14:09:39;147829.16;;;-1.88
15453;BMP280;7827;53.594;9.938;2022-12-18T14:12:17;147827.94;;;-1.89
15453;BMP280;7827;53.594;9.938;2022-12-18T14:15:07;147820.50;;;-1.92
15453;BMP280;7827;53.594;9.938;2022-12-18T14:17:43;147810.56;;;-1.95
15453;BMP280;7827;53.594;9.938;2022-12-18T14:20:14;147815.50;;;-1.94
15453;BMP280;7827;53.594;9.938;2022-12-18T14:22:45;147803.13;;;-1.98
15453;BMP280;7827;53.594;9.938;2022-12-18T14:25:21;147796.91;;;-2.01
15453;BMP280;7827;53.594;9.938;2022-12-18T14:27:52;147796.91;;;-2.01
15453;BMP280;7827;53.594;9.938;2022-12-18T14:30:27;147798.19;;;-2.00
15453;BMP280;7827;53.594;9.938;2022-12-18T14:33:05;147770.88;;;-2.11
15453;BMP280;7827;53.594;9.938;2022-12-18T14:35:37;147758.47;;;-2.16
15453;BMP280;7827;53.594;9.938;2022-12-18T14:38:21;147794.44;;;-2.02
15453;BMP280;7827;53.594;9.938;2022-12-18T14:40:57;147770.88;;;-2.11
15453;BMP280;7827;53.594;9.938;2022-12-18T14:43:27;147744.84;;;-2.22
15453;BMP280;7827;53.594;9.938;2022-12-18T14:45:56;147728.75;;;-2.28
15453;BMP280;7827;53.594;9.938;2022-12-18T14:48:36;147716.31;;;-2.33
15453;BMP280;7827;53.594;9.938;2022-12-18T14:51:15;147703.94;;;-2.38
15453;BMP280;7827;53.594;9.938;2022-12-18T14:53:46;147705.16;;;-2.38